Time;durP1;ratioP1;P1;durP2;ratioP2;P2;SDS_P1;SDS_P2;PMS_P1;PMS_P2;Temp;Humidity;BMP_temperature;BMP_pressure;BME280_temperature;BME280_humidity;BME280_pressure;Samples;Min_cycle;Max_cycle;Signal;HPM_P1;HPM_P2
2022/10/18 00:01:48;;;;;;;10.02;7.97;;;8.80;99.90;;;;;;5094106;28;20638;-50
2022/10/18 00:04:13;;;;;;;10.30;7.55;;;8.80;99.90;;;;;;5092871;28;20016;-49
2022/10/18 00:06:39;;;;;;;7.15;6.43;;;8.80;99.90;;;;;;5094173;28;20028;-49
2022/10/18 00:09:04;;;;;;;16.38;6.07;;;8.80;99.90;;;;;;5093972;28;20044;-49
2022/10/18 00:11:30;;;;;;;12.38;6.55;;;8.80;99.90;;;;;;5093995;28;20615;-50
2022/10/18 00:13:57;;;;;;;7.38;6.68;;;8.90;99.90;;;;;;5094112;28;20401;-49
2022/10/18 00:16:22;;;;;;;7.65;6.85;;;8.90;99.90;;;;;;5093833;28;20054;-49
2022/10/18 00:18:48;;;;;;;11.20;7.47;;;8.90;99.90;;;;;;5093963;28;20020;-49
2022/10/18 00:21:16;;;;;;;37.13;8.95;;;8.80;99.90;;;;;;5093892;28;20016;-49
2022/10/18 00:23:43;;;;;;;13.88;7.43;;;8.80;99.90;;;;;;5093821;28;20085;-50
2022/10/18 00:26:13;;;;;;;8.43;7.03;;;8.80;99.90;;;;;;5093787;28;20024;-50
2022/10/18 00:28:40;;;;;;;13.32;7.05;;;8.70;99.90;;;;;;5093577;28;20028;-50
2022/10/18 00:31:16;;;;;;;9.15;8.23;;;8.70;99.90;;;;;;5093664;28;20034;-50
2022/10/18 00:33:43;;;;;;;13.70;8.00;;;8.70;99.90;;;;;;5093618;28;20356;-50
2022/10/18 00:36:09;;;;;;;36.58;9.10;;;8.70;99.90;;;;;;5093112;28;20476;-50
2022/10/18 00:38:36;;;;;;;52.55;9.57;;;8.60;99.90;;;;;;5093496;28;20025;-50
2022/10/18 00:41:03;;;;;;;47.00;8.73;;;8.60;99.90;;;;;;5093547;28;20032;-49
2022/10/18 00:43:28;;;;;;;8.93;7.47;;;8.60;99.90;;;;;;5093379;28;20071;-49
2022/10/18 00:45:54;;;;;;;7.05;6.35;;;8.60;99.90;;;;;;5093323;28;20044;-50
2022/10/18 00:48:20;;;;;;;14.93;6.85;;;8.50;99.90;;;;;;5093230;28;20032;-50
2022/10/18 00:50:48;;;;;;;34.40;7.03;;;8.40;99.90;;;;;;5093260;28;20128;-49
2022/10/18 00:53:19;;;;;;;20.63;6.97;;;8.40;99.90;;;;;;5093336;28;20024;-50
2022/10/18 00:55:45;;;;;;;13.30;7.20;;;8.40;99.90;;;;;;5093126;28;20091;-50
2022/10/18 00:58:12;;;;;;;12.40;6.32;;;8.40;99.90;;;;;;5093214;28;20095;-49
2022/10/18 01:00:39;;;;;;;13.07;6.57;;;8.40;99.90;;;;;;5093087;28;20014;-50
2022/10/18 01:03:06;;;;;;;11.57;6.15;;;8.40;99.90;;;;;;5093114;28;20024;-50
2022/10/18 01:05:33;;;;;;;7.90;5.72;;;8.40;99.90;;;;;;5092893;28;20070;-50
2022/10/18 01:08:35;;;;;;;5.90;5.18;;;8.40;99.90;;;;;;5092948;28;20036;-50
2022/10/18 01:11:24;;;;;;;5.57;5.07;;;8.30;99.90;;;;;;5092766;28;20036;-50
2022/10/18 01:13:59;;;;;;;5.93;5.13;;;8.30;99.90;;;;;;5086269;28;20164;-49
2022/10/18 01:16:38;;;;;;;5.75;4.68;;;8.30;99.90;;;;;;5092807;28;20059;-50
2022/10/18 01:19:22;;;;;;;12.85;4.80;;;8.30;99.90;;;;;;5092725;28;20077;-50
2022/10/18 01:22:18;;;;;;;6.38;5.43;;;8.20;99.90;;;;;;5092596;28;20016;-50
2022/10/18 01:25:05;;;;;;;11.18;5.47;;;8.20;99.90;;;;;;5092630;28;20387;-52
2022/10/18 01:27:55;;;;;;;4.80;4.40;;;8.20;99.90;;;;;;5092722;28;20026;-49
2022/10/18 01:30:35;;;;;;;12.00;5.45;;;8.20;99.90;;;;;;5092448;28;20675;-50
2022/10/18 01:33:27;;;;;;;10.43;4.95;;;8.20;99.90;;;;;;5092316;28;20045;-49
2022/10/18 01:36:27;;;;;;;7.97;5.25;;;8.10;99.90;;;;;;5092382;28;20073;-50
2022/10/18 01:38:57;;;;;;;6.45;4.93;;;8.00;99.90;;;;;;5083053;28;20039;-49
2022/10/18 01:41:24;;;;;;;6.75;5.65;;;8.00;99.90;;;;;;5092318;28;20051;-50
2022/10/18 01:43:57;;;;;;;6.10;4.70;;;8.00;99.90;;;;;;5092183;28;20032;-51
2022/10/18 01:46:25;;;;;;;5.03;4.53;;;8.00;99.90;;;;;;5091443;28;20024;-50
2022/10/18 01:48:52;;;;;;;11.38;5.25;;;8.00;99.90;;;;;;5092147;28;20020;-50
2022/10/18 01:51:38;;;;;;;9.10;4.50;;;8.00;99.90;;;;;;5092231;28;20476;-50
2022/10/18 01:54:04;;;;;;;8.52;4.15;;;8.00;99.90;;;;;;5091616;28;20032;-50
2022/10/18 01:56:48;;;;;;;7.35;4.05;;;8.00;99.90;;;;;;5092284;28;20063;-49
2022/10/18 01:59:19;;;;;;;5.45;4.35;;;7.90;99.90;;;;;;5092241;28;20050;-49
2022/10/18 02:01:51;;;;;;;13.75;5.00;;;8.00;99.90;;;;;;5091991;28;20256;-50
2022/10/18 02:04:44;;;;;;;6.22;4.25;;;7.90;99.90;;;;;;5091987;28;20588;-49
2022/10/18 02:07:16;;;;;;;7.20;4.85;;;7.90;99.90;;;;;;5091688;28;20049;-49
2022/10/18 02:09:50;;;;;;;4.90;4.40;;;7.90;99.90;;;;;;5091901;28;20036;-50
2022/10/18 02:12:18;;;;;;;4.18;3.78;;;8.00;99.90;;;;;;5091771;28;20023;-50
2022/10/18 02:14:44;;;;;;;5.03;4.47;;;8.00;99.90;;;;;;5089143;28;20031;-51
2022/10/18 02:17:13;;;;;;;4.97;3.85;;;8.00;99.90;;;;;;5089883;28;20498;-53
2022/10/18 02:19:46;;;;;;;5.07;4.00;;;7.90;99.90;;;;;;5086246;28;20028;-49
2022/10/18 02:22:13;;;;;;;5.75;4.75;;;8.00;99.90;;;;;;5071508;28;20024;-50
2022/10/18 02:24:49;;;;;;;16.42;5.32;;;8.00;99.90;;;;;;5075912;28;20032;-50
2022/10/18 02:27:16;;;;;;;4.35;3.95;;;7.90;99.90;;;;;;5091425;28;20100;-49
2022/10/18 02:29:42;;;;;;;14.70;4.53;;;7.90;99.90;;;;;;5076046;28;20493;-50
2022/10/18 02:32:26;;;;;;;7.32;4.22;;;7.90;99.90;;;;;;5078243;28;20020;-49
2022/10/18 02:35:00;;;;;;;6.00;3.85;;;7.80;99.90;;;;;;5084264;28;20059;-50
2022/10/18 02:37:34;;;;;;;19.17;4.53;;;7.80;99.90;;;;;;5080101;28;20471;-50
2022/10/18 02:40:02;;;;;;;5.00;4.15;;;7.80;99.90;;;;;;5071359;28;20027;-52
2022/10/18 02:42:36;;;;;;;8.77;4.50;;;7.80;99.90;;;;;;5071324;28;20032;-50
2022/10/18 02:45:03;;;;;;;4.90;4.38;;;7.80;99.90;;;;;;5071249;28;20036;-53
2022/10/18 02:47:29;;;;;;;4.70;3.80;;;7.70;99.90;;;;;;5071187;28;20109;-49
2022/10/18 02:49:54;;;;;;;4.70;4.30;;;7.70;99.90;;;;;;5071388;28;20067;-49
2022/10/18 02:52:20;;;;;;;7.40;4.05;;;7.70;99.90;;;;;;5070975;28;20044;-50
2022/10/18 02:54:45;;;;;;;8.20;4.25;;;7.70;99.90;;;;;;5071255;28;20502;-49
2022/10/18 02:57:11;;;;;;;6.85;3.95;;;7.60;99.90;;;;;;5070981;28;20635;-50
2022/10/18 02:59:37;;;;;;;7.95;3.95;;;7.60;99.90;;;;;;5074849;28;20032;-49
2022/10/18 03:02:02;;;;;;;6.90;3.90;;;7.60;99.90;;;;;;5075260;28;20024;-49
2022/10/18 03:04:28;;;;;;;11.00;4.25;;;7.60;99.90;;;;;;5075005;28;20418;-50
2022/10/18 03:06:54;;;;;;;12.45;4.30;;;7.60;99.90;;;;;;5074938;28;20020;-50
2022/10/18 03:09:19;;;;;;;5.03;4.07;;;7.60;99.90;;;;;;5074203;28;20041;-49
2022/10/18 03:11:45;;;;;;;5.68;4.07;;;7.60;99.90;;;;;;5074371;28;20052;-49
2022/10/18 03:14:10;;;;;;;12.15;4.82;;;7.60;99.90;;;;;;5073786;28;20115;-50
2022/10/18 03:16:36;;;;;;;7.80;4.65;;;7.60;99.90;;;;;;5074419;28;20020;-49
2022/10/18 03:19:02;;;;;;;9.75;4.68;;;7.60;99.90;;;;;;5073851;28;20027;-50
2022/10/18 03:21:27;;;;;;;10.98;4.50;;;7.60;99.90;;;;;;5073627;28;20385;-49
2022/10/18 03:23:53;;;;;;;7.97;4.90;;;7.60;99.90;;;;;;5074071;28;20500;-50
2022/10/18 03:26:20;;;;;;;9.25;5.05;;;7.70;99.90;;;;;;5074225;28;20032;-49
2022/10/18 03:28:46;;;;;;;13.70;6.03;;;7.70;99.90;;;;;;5074425;28;20020;-50
2022/10/18 03:31:11;;;;;;;63.60;6.88;;;7.80;99.90;;;;;;5074399;28;20032;-49
2022/10/18 03:33:37;;;;;;;15.70;6.45;;;7.80;99.90;;;;;;5074511;28;20353;-51
2022/10/18 03:36:03;;;;;;;36.08;6.88;;;7.90;99.90;;;;;;5073065;28;20051;-48
2022/10/18 03:38:29;;;;;;;31.10;6.47;;;7.90;99.90;;;;;;5089840;28;20032;-50
2022/10/18 03:40:54;;;;;;;33.80;7.35;;;7.90;99.90;;;;;;5074509;28;20036;-50
2022/10/18 03:43:20;;;;;;;37.65;6.38;;;7.90;99.90;;;;;;5074235;28;20068;-50
2022/10/18 03:45:46;;;;;;;85.05;7.30;;;7.90;99.90;;;;;;5074352;28;20033;-49
2022/10/18 03:48:12;;;;;;;93.13;8.23;;;7.90;99.90;;;;;;5074349;28;20027;-49
2022/10/18 03:50:38;;;;;;;107.88;7.65;;;7.90;99.90;;;;;;5074186;28;20479;-49
2022/10/18 03:53:03;;;;;;;55.20;7.18;;;7.80;99.90;;;;;;5074237;28;20492;-51
2022/10/18 03:55:29;;;;;;;98.85;7.95;;;7.80;99.90;;;;;;5074062;28;20166;-49
2022/10/18 03:57:55;;;;;;;80.95;7.40;;;7.70;99.90;;;;;;5074276;28;20032;-50
2022/10/18 04:00:21;;;;;;;59.17;6.95;;;7.70;99.90;;;;;;5073925;28;20028;-50
2022/10/18 04:02:47;;;;;;;43.40;5.57;;;7.70;99.90;;;;;;5089643;28;20028;-49
2022/10/18 04:05:13;;;;;;;49.08;5.47;;;7.70;99.90;;;;;;5073391;28;20040;-51
2022/10/18 04:07:38;;;;;;;30.23;5.85;;;7.70;99.90;;;;;;5073687;28;20063;-50
2022/10/18 04:10:05;;;;;;;31.40;6.15;;;7.60;99.90;;;;;;5072807;28;20089;-49
2022/10/18 04:12:30;;;;;;;42.85;7.85;;;7.70;99.90;;;;;;5073816;28;20463;-49
2022/10/18 04:14:56;;;;;;;32.53;5.72;;;7.70;99.90;;;;;;5073883;28;20108;-53
2022/10/18 04:17:21;;;;;;;33.80;6.03;;;7.70;99.90;;;;;;5073531;28;20021;-49
2022/10/18 04:19:48;;;;;;;67.28;6.82;;;7.70;99.90;;;;;;5073747;28;20033;-50
2022/10/18 04:22:13;;;;;;;43.92;5.93;;;7.70;99.90;;;;;;5073490;28;20020;-52
2022/10/18 04:24:39;;;;;;;35.33;5.20;;;7.60;99.90;;;;;;5073621;28;20115;-49
2022/10/18 04:27:06;;;;;;;38.17;5.28;;;7.70;99.90;;;;;;5073502;28;20028;-50
2022/10/18 04:29:31;;;;;;;35.25;5.13;;;7.60;99.90;;;;;;5073327;28;20033;-49
2022/10/18 04:31:57;;;;;;;10.73;4.10;;;7.60;99.90;;;;;;5073466;28;20024;-49
2022/10/18 04:34:23;;;;;;;7.22;4.53;;;7.50;99.90;;;;;;5073045;28;20379;-50
2022/10/18 04:36:48;;;;;;;29.65;4.97;;;7.50;99.90;;;;;;5073269;28;20357;-49
2022/10/18 04:39:14;;;;;;;10.57;4.00;;;7.50;99.90;;;;;;5072779;28;20012;-50
2022/10/18 04:41:40;;;;;;;28.70;4.68;;;7.50;99.90;;;;;;5072903;28;20024;-51
2022/10/18 04:44:05;;;;;;;23.45;4.95;;;7.40;99.90;;;;;;5073127;28;20080;-50
2022/10/18 04:46:31;;;;;;;33.42;5.20;;;7.50;99.90;;;;;;5072691;28;20069;-50
2022/10/18 04:48:57;;;;;;;58.47;6.57;;;7.40;99.90;;;;;;5072705;28;20024;-49
2022/10/18 04:51:22;;;;;;;26.85;6.20;;;7.40;99.90;;;;;;5072768;28;20391;-50
2022/10/18 04:53:48;;;;;;;98.20;7.93;;;7.40;99.90;;;;;;5073105;28;20020;-50
2022/10/18 04:56:15;;;;;;;19.23;6.45;;;7.40;99.90;;;;;;5072971;28;20364;-50
2022/10/18 04:58:41;;;;;;;92.53;7.78;;;7.40;99.90;;;;;;5072795;28;20531;-49
2022/10/18 05:01:07;;;;;;;44.35;6.97;;;7.30;99.90;;;;;;5072707;28;20024;-52
2022/10/18 05:03:33;;;;;;;29.08;6.18;;;7.30;99.90;;;;;;5072612;28;20024;-49
2022/10/18 05:05:58;;;;;;;9.82;5.28;;;7.30;99.90;;;;;;5072353;28;20028;-51
2022/10/18 05:08:24;;;;;;;8.52;5.20;;;7.30;99.90;;;;;;5072233;28;20067;-50
2022/10/18 05:10:50;;;;;;;13.52;6.53;;;7.30;99.90;;;;;;5072641;28;20025;-49
2022/10/18 05:13:15;;;;;;;7.40;5.03;;;7.30;99.90;;;;;;5072259;28;20023;-49
2022/10/18 05:15:41;;;;;;;11.88;5.97;;;7.30;99.90;;;;;;5072273;28;20026;-49
2022/10/18 05:18:06;;;;;;;6.63;6.00;;;7.30;99.90;;;;;;5072041;28;20049;-50
2022/10/18 05:20:32;;;;;;;12.75;5.63;;;7.20;99.90;;;;;;5072168;28;20236;-50
2022/10/18 05:22:58;;;;;;;13.13;5.03;;;7.20;99.90;;;;;;5072613;28;20028;-51
2022/10/18 05:25:23;;;;;;;5.72;4.90;;;7.20;99.90;;;;;;5072192;28;20089;-49
2022/10/18 05:27:49;;;;;;;5.38;4.85;;;7.20;99.90;;;;;;5072378;28;20054;-49
2022/10/18 05:30:15;;;;;;;9.05;4.65;;;7.20;99.90;;;;;;5070773;28;20108;-50
2022/10/18 05:32:40;;;;;;;14.30;4.60;;;7.20;99.90;;;;;;5072332;28;20051;-50
2022/10/18 05:35:06;;;;;;;14.90;4.78;;;7.20;99.90;;;;;;5072184;28;20016;-49
2022/10/18 05:37:32;;;;;;;10.35;4.60;;;7.20;99.90;;;;;;5072113;28;20349;-50
2022/10/18 05:39:58;;;;;;;18.33;5.05;;;7.20;99.90;;;;;;5072318;28;20029;-49
2022/10/18 05:42:23;;;;;;;8.27;4.60;;;7.20;99.90;;;;;;5071884;28;20063;-49
2022/10/18 05:44:49;;;;;;;7.05;5.05;;;7.20;99.90;;;;;;5072072;28;20739;-49
2022/10/18 05:47:14;;;;;;;6.85;4.55;;;7.20;99.90;;;;;;5071953;28;20067;-49
2022/10/18 05:49:40;;;;;;;7.10;4.82;;;7.30;99.90;;;;;;5071782;28;20063;-53
2022/10/18 05:52:06;;;;;;;4.75;3.88;;;7.30;99.90;;;;;;5071924;28;20100;-50
2022/10/18 05:54:31;;;;;;;5.72;3.40;;;7.30;99.90;;;;;;5071945;28;20634;-51
2022/10/18 05:56:57;;;;;;;3.55;3.22;;;7.30;99.90;;;;;;5087695;28;20021;-49
2022/10/18 05:59:23;;;;;;;4.45;3.70;;;7.30;99.90;;;;;;5071598;28;20028;-50
2022/10/18 06:01:48;;;;;;;6.57;4.30;;;7.40;99.90;;;;;;5071768;28;20036;-49
2022/10/18 06:04:16;;;;;;;9.23;3.83;;;7.40;99.90;;;;;;5071754;28;20075;-49
2022/10/18 06:06:42;;;;;;;9.18;3.65;;;7.50;99.90;;;;;;5071603;28;20333;-50
2022/10/18 06:09:08;;;;;;;7.32;3.65;;;7.50;99.90;;;;;;5071426;28;20051;-50
2022/10/18 06:11:35;;;;;;;8.50;3.67;;;7.60;99.90;;;;;;5070192;28;20021;-49
2022/10/18 06:14:00;;;;;;;5.93;4.00;;;7.60;99.90;;;;;;5071174;28;20176;-53
2022/10/18 06:16:26;;;;;;;6.03;4.15;;;7.70;99.90;;;;;;5071123;28;20017;-48
2022/10/18 06:18:55;;;;;;;4.43;4.03;;;7.80;99.90;;;;;;5071354;28;20360;-49
2022/10/18 06:21:21;;;;;;;8.50;4.30;;;7.90;99.90;;;;;;5071088;28;20025;-51
2022/10/18 06:23:48;;;;;;;10.55;4.82;;;7.90;99.90;;;;;;5071630;28;20032;-50
2022/10/18 06:26:13;;;;;;;5.10;4.32;;;8.00;99.90;;;;;;5071381;28;20118;-50
2022/10/18 06:28:39;;;;;;;8.27;4.15;;;8.20;99.90;;;;;;5071643;28;20472;-50
2022/10/18 06:31:05;;;;;;;4.65;4.15;;;8.30;99.90;;;;;;5084609;28;20024;-49
2022/10/18 06:33:33;;;;;;;5.03;4.53;;;8.40;99.90;;;;;;5090118;28;20043;-50
2022/10/18 06:36:06;;;;;;;4.85;4.35;;;8.50;99.90;;;;;;5090072;28;20043;-49
2022/10/18 06:38:33;;;;;;;5.57;5.03;;;8.50;99.90;;;;;;5088972;28;20030;-50
2022/10/18 06:40:59;;;;;;;6.70;4.88;;;8.50;99.90;;;;;;5088600;28;20032;-50
2022/10/18 06:43:25;;;;;;;7.07;5.32;;;8.50;99.90;;;;;;5090007;28;20289;-49
2022/10/18 06:45:51;;;;;;;14.90;6.15;;;8.60;99.90;;;;;;5090292;28;20032;-48
2022/10/18 06:48:18;;;;;;;10.40;5.28;;;8.60;99.90;;;;;;5090046;28;20027;-48
2022/10/18 06:50:51;;;;;;;12.57;6.65;;;8.70;99.90;;;;;;5090229;28;20020;-49
2022/10/18 06:53:17;;;;;;;17.25;5.68;;;8.90;99.90;;;;;;5090020;28;20024;-49
2022/10/18 06:55:42;;;;;;;18.73;7.72;;;9.10;99.90;;;;;;5090279;28;20025;-49
2022/10/18 06:58:08;;;;;;;11.63;5.97;;;9.20;99.90;;;;;;5090045;28;20472;-49
2022/10/18 07:00:34;;;;;;;13.15;8.43;;;9.30;99.90;;;;;;5089990;28;20035;-49
2022/10/18 07:03:00;;;;;;;22.02;10.88;;;9.60;99.90;;;;;;5090328;28;20118;-49
2022/10/18 07:05:25;;;;;;;18.23;8.48;;;9.80;99.90;;;;;;5089986;28;20103;-49
2022/10/18 07:07:52;;;;;;;16.13;8.52;;;9.90;99.90;;;;;;5090158;28;20491;-50
2022/10/18 07:10:17;;;;;;;12.73;7.25;;;10.10;99.90;;;;;;5089729;28;20089;-49
2022/10/18 07:12:43;;;;;;;8.65;7.13;;;10.30;99.90;;;;;;5088848;28;20028;-50
2022/10/18 07:15:09;;;;;;;9.75;5.65;;;10.50;99.90;;;;;;5089809;28;20027;-49
2022/10/18 07:17:35;;;;;;;15.43;4.97;;;10.60;99.90;;;;;;5088675;28;20387;-50
2022/10/18 07:20:03;;;;;;;7.72;5.00;;;10.60;99.90;;;;;;5089862;28;20032;-48
2022/10/18 07:22:29;;;;;;;19.45;5.20;;;10.70;99.90;;;;;;5088479;28;20123;-48
2022/10/18 07:24:54;;;;;;;14.68;6.03;;;10.80;99.90;;;;;;5090114;28;20471;-48
2022/10/18 07:27:20;;;;;;;12.18;5.95;;;10.80;99.90;;;;;;5089628;28;21324;-49
2022/10/18 07:29:47;;;;;;;19.20;6.50;;;10.90;99.90;;;;;;5089886;28;20020;-48
2022/10/18 07:32:13;;;;;;;24.45;8.18;;;11.10;99.90;;;;;;5089825;28;20054;-49
2022/10/18 07:34:38;;;;;;;18.77;8.00;;;11.20;99.90;;;;;;5089888;28;20059;-50
2022/10/18 07:37:04;;;;;;;10.50;6.30;;;11.40;99.90;;;;;;5089655;28;20064;-49
2022/10/18 07:39:30;;;;;;;8.02;6.07;;;11.60;99.90;;;;;;5088359;28;20032;-49
2022/10/18 07:41:56;;;;;;;11.20;7.00;;;11.90;99.90;;;;;;5088598;28;20028;-49
2022/10/18 07:44:22;;;;;;;16.05;7.78;;;12.10;99.90;;;;;;5089494;28;20469;-49
2022/10/18 07:46:47;;;;;;;14.52;7.22;;;12.30;99.90;;;;;;5093507;28;20118;-49
2022/10/18 07:49:13;;;;;;;10.65;6.97;;;12.40;99.90;;;;;;5093032;28;20039;-49
2022/10/18 07:51:38;;;;;;;11.10;7.70;;;12.60;99.90;;;;;;5093426;28;20096;-49
2022/10/18 07:54:04;;;;;;;13.23;7.82;;;12.70;99.90;;;;;;5093141;28;20023;-49
2022/10/18 07:56:30;;;;;;;7.75;6.95;;;12.90;99.90;;;;;;5093147;28;20016;-50
2022/10/18 07:58:56;;;;;;;7.50;5.70;;;13.10;99.90;;;;;;5093502;28;20022;-50
2022/10/18 08:01:22;;;;;;;12.25;6.85;;;13.30;99.90;;;;;;5091564;28;20020;-49
2022/10/18 08:03:48;;;;;;;13.75;6.72;;;13.40;99.90;;;;;;5093151;28;20024;-49
2022/10/18 08:06:17;;;;;;;13.05;6.55;;;13.50;99.90;;;;;;5092816;28;20490;-49
2022/10/18 08:08:44;;;;;;;9.68;6.63;;;13.60;99.90;;;;;;5092952;28;20044;-48
2022/10/18 08:11:15;;;;;;;13.20;5.43;;;13.70;99.90;;;;;;5092496;28;20039;-49
2022/10/18 08:13:41;;;;;;;7.22;5.72;;;13.80;99.90;;;;;;5092891;28;20024;-48
2022/10/18 08:16:10;;;;;;;10.20;5.30;;;13.90;99.90;;;;;;5092754;28;20032;-48
2022/10/18 08:18:36;;;;;;;7.20;5.05;;;14.00;99.90;;;;;;5092688;28;20042;-48
2022/10/18 08:21:04;;;;;;;10.23;6.32;;;14.10;99.90;;;;;;5092734;28;20024;-50
2022/10/18 08:23:30;;;;;;;14.25;5.50;;;14.10;99.90;;;;;;5092587;28;20035;-48
2022/10/18 08:25:59;;;;;;;8.70;4.97;;;14.20;99.90;;;;;;5092690;28;20487;-48
2022/10/18 08:28:25;;;;;;;11.90;5.10;;;14.30;99.90;;;;;;5092381;28;20031;-49
2022/10/18 08:30:50;;;;;;;11.20;5.53;;;14.50;99.90;;;;;;5092718;28;20494;-50
2022/10/18 08:33:16;;;;;;;14.00;5.97;;;14.60;99.90;;;;;;5092154;28;20024;-50
2022/10/18 08:35:42;;;;;;;5.70;5.10;;;14.80;99.90;;;;;;5092516;28;20031;-49
2022/10/18 08:38:10;;;;;;;9.75;5.70;;;14.90;99.90;;;;;;5090797;28;20020;-55
2022/10/18 08:40:43;;;;;;;6.45;4.97;;;15.20;99.90;;;;;;5090880;28;20024;-49
2022/10/18 08:43:23;;;;;;;9.82;5.60;;;15.40;99.90;;;;;;5092074;28;20031;-49
2022/10/18 08:45:52;;;;;;;10.40;5.95;;;15.60;99.90;;;;;;5092264;28;20030;-50
2022/10/18 08:48:31;;;;;;;8.90;5.70;;;15.70;99.90;;;;;;5091946;28;20032;-49
2022/10/18 08:50:58;;;;;;;10.50;5.90;;;15.80;99.90;;;;;;5092216;28;20499;-49
2022/10/18 08:53:32;;;;;;;10.98;5.82;;;15.90;99.90;;;;;;5091868;28;20020;-49
2022/10/18 08:56:22;;;;;;;9.38;5.18;;;16.00;99.90;;;;;;5091917;28;20368;-50
2022/10/18 08:58:49;;;;;;;6.63;5.63;;;16.20;99.90;;;;;;5092061;28;20057;-52
2022/10/18 09:01:35;;;;;;;14.35;6.72;;;16.40;99.90;;;;;;5091531;28;20115;-51
2022/10/18 09:04:16;;;;;;;9.63;6.20;;;16.70;99.90;;;;;;5091625;28;20031;-50
2022/10/18 09:06:56;;;;;;;7.65;5.38;;;16.80;99.90;;;;;;5091886;28;20008;-50
2022/10/18 09:09:38;;;;;;;10.98;5.75;;;17.00;99.90;;;;;;5091434;28;20515;-50
2022/10/18 09:12:30;;;;;;;11.52;5.63;;;17.20;99.90;;;;;;5091705;28;20024;-51
2022/10/18 09:15:08;;;;;;;9.18;5.78;;;17.40;99.90;;;;;;5091806;28;20387;-54
2022/10/18 09:17:54;;;;;;;7.03;6.28;;;17.50;99.90;;;;;;5091582;28;20052;-49
2022/10/18 09:20:55;;;;;;;12.65;6.20;;;17.70;99.90;;;;;;5087097;28;20051;-50
2022/10/18 09:23:30;;;;;;;15.55;6.82;;;17.90;99.90;;;;;;5090284;28;20628;-51
2022/10/18 09:26:05;;;;;;;13.90;5.90;;;18.00;99.90;;;;;;5090482;28;20078;-49
2022/10/18 09:28:55;;;;;;;12.50;6.45;;;18.20;99.90;;;;;;5091561;28;20032;-48
2022/10/18 09:31:42;;;;;;;17.65;6.78;;;18.40;99.90;;;;;;5091128;28;20062;-49
2022/10/18 09:34:20;;;;;;;8.93;6.72;;;18.60;99.90;;;;;;5091146;28;20016;-49
2022/10/18 09:36:49;;;;;;;18.13;7.55;;;18.80;99.90;;;;;;5091073;28;20387;-49
2022/10/18 09:39:21;;;;;;;12.48;6.45;;;19.00;99.90;;;;;;5091196;28;20054;-49
2022/10/18 09:41:54;;;;;;;11.80;6.65;;;19.30;99.90;;;;;;5090055;28;20453;-49
2022/10/18 09:44:28;;;;;;;13.57;6.47;;;19.30;99.90;;;;;;5091138;28;20026;-52
2022/10/18 09:47:03;;;;;;;10.73;6.00;;;19.60;99.90;;;;;;5089914;28;20536;-50
2022/10/18 09:49:33;;;;;;;11.90;6.53;;;19.80;99.90;;;;;;5091194;28;20115;-49
2022/10/18 09:52:02;;;;;;;6.97;5.35;;;19.50;99.90;;;;;;5091126;28;20408;-50
2022/10/18 09:54:40;;;;;;;8.45;5.15;;;19.60;99.90;;;;;;5090619;28;20015;-49
2022/10/18 09:57:14;;;;;;;9.27;4.78;;;19.90;99.90;;;;;;5090753;28;20030;-48
2022/10/18 09:59:42;;;;;;;11.80;5.35;;;20.20;99.90;;;;;;5084836;28;20467;-51
2022/10/18 10:02:17;;;;;;;9.98;4.82;;;20.40;99.80;;;;;;5058702;28;20551;-49
2022/10/18 10:04:43;;;;;;;10.60;5.80;;;21.90;98.50;;;;;;5059596;28;20031;-48
2022/10/18 10:07:16;;;;;;;4.90;4.38;;;23.10;95.30;;;;;;5057977;28;20044;-50
2022/10/18 10:09:57;;;;;;;16.42;4.45;;;24.90;91.70;;;;;;5059613;28;20098;-49
2022/10/18 10:12:34;;;;;;;7.65;3.95;;;26.20;86.40;;;;;;5059269;28;20036;-51
2022/10/18 10:15:19;;;;;;;13.50;3.47;;;26.00;84.80;;;;;;5079092;28;20020;-51
2022/10/18 10:18:16;;;;;;;13.00;4.07;;;27.60;78.40;;;;;;5080366;28;20088;-49
2022/10/18 10:20:51;;;;;;;9.77;4.43;;;27.50;70.70;;;;;;5057756;28;20066;-49
2022/10/18 10:23:27;;;;;;;5.15;3.55;;;28.10;68.70;;;;;;5058292;28;20027;-49
2022/10/18 10:25:58;;;;;;;8.02;3.55;;;28.10;66.60;;;;;;5058987;28;20033;-50
2022/10/18 10:28:30;;;;;;;4.20;3.10;;;28.00;65.50;;;;;;5058548;28;20404;-51
2022/10/18 10:31:24;;;;;;;7.90;3.50;;;27.80;65.20;;;;;;5058642;28;20080;-51
2022/10/18 10:34:13;;;;;;;8.23;4.03;;;27.50;65.70;;;;;;5058383;28;20021;-49
2022/10/18 10:36:50;;;;;;;4.50;3.78;;;27.80;64.60;;;;;;5059238;28;20119;-50
2022/10/18 10:39:18;;;;;;;8.35;3.35;;;28.10;64.20;;;;;;5058343;28;20072;-50
2022/10/18 10:41:58;;;;;;;8.88;3.80;;;28.40;64.40;;;;;;5058726;28;20036;-50
2022/10/18 10:44:31;;;;;;;8.98;3.53;;;26.50;64.80;;;;;;5058540;28;20089;-52
2022/10/18 10:46:58;;;;;;;9.95;3.58;;;28.10;62.50;;;;;;5059050;28;20017;-49
2022/10/18 10:49:45;;;;;;;9.93;3.50;;;28.60;62.50;;;;;;5058882;28;20021;-49
2022/10/18 10:52:26;;;;;;;9.15;3.72;;;29.70;61.60;;;;;;5057668;28;20037;-50
2022/10/18 10:54:54;;;;;;;12.25;5.15;;;29.00;59.50;;;;;;5059531;28;20104;-51
2022/10/18 10:57:24;;;;;;;4.93;3.17;;;29.80;58.90;;;;;;5058800;28;20272;-51
2022/10/18 10:59:53;;;;;;;8.60;3.53;;;30.30;61.40;;;;;;5059269;28;20357;-50
2022/10/18 11:02:22;;;;;;;6.82;3.08;;;29.10;59.20;;;;;;5058251;28;20024;-49
2022/10/18 11:04:50;;;;;;;17.33;3.22;;;30.60;59.10;;;;;;5058935;28;20039;-50
2022/10/18 11:07:34;;;;;;;10.52;2.55;;;31.20;56.10;;;;;;5057369;28;20097;-49
2022/10/18 11:10:09;;;;;;;9.20;3.45;;;30.90;54.80;;;;;;5058758;28;20412;-49
2022/10/18 11:12:38;;;;;;;4.72;3.30;;;31.10;54.20;;;;;;5058096;28;20025;-52
2022/10/18 11:15:12;;;;;;;5.72;3.20;;;29.90;53.60;;;;;;5058311;28;20025;-50
2022/10/18 11:17:38;;;;;;;5.10;3.25;;;30.70;54.00;;;;;;5058264;28;20033;-49
2022/10/18 11:20:08;;;;;;;10.32;3.10;;;29.00;54.10;;;;;;5060939;28;20038;-49
2022/10/18 11:22:58;;;;;;;19.52;3.92;;;29.80;57.10;;;;;;5061593;28;20041;-51
2022/10/18 11:25:31;;;;;;;4.65;3.10;;;28.40;55.30;;;;;;5062236;28;20031;-49
2022/10/18 11:28:08;;;;;;;4.45;3.33;;;30.40;55.30;;;;;;5062168;28;20032;-51
2022/10/18 11:30:58;;;;;;;11.70;3.53;;;30.90;54.70;;;;;;5061993;28;20032;-50
2022/10/18 11:33:44;;;;;;;8.00;2.75;;;29.00;54.20;;;;;;5061633;28;20021;-52
2022/10/18 11:36:36;;;;;;;4.88;2.92;;;30.90;53.40;;;;;;5062158;28;20078;-50
2022/10/18 11:39:37;;;;;;;5.53;3.15;;;30.20;54.30;;;;;;5061741;28;20035;-52
2022/10/18 11:42:03;;;;;;;6.85;3.20;;;28.50;55.00;;;;;;4972154;28;20074;-50
2022/10/18 11:44:36;;;;;;;12.60;3.67;;;28.20;57.80;;;;;;5061988;28;20116;-50
2022/10/18 11:47:16;;;;;;;7.40;3.00;;;28.60;57.20;;;;;;5061662;28;20036;-51
2022/10/18 11:49:48;;;;;;;10.88;2.58;;;28.80;55.50;;;;;;5078224;28;20540;-49
2022/10/18 11:52:24;;;;;;;4.47;2.97;;;28.80;56.20;;;;;;5062834;28;20461;-52
2022/10/18 11:54:59;;;;;;;9.73;3.25;;;29.20;57.30;;;;;;5064563;28;20017;-50
2022/10/18 11:57:47;;;;;;;9.98;3.47;;;28.80;53.90;;;;;;5065592;28;20021;-53
2022/10/18 12:00:38;;;;;;;4.13;2.03;;;29.90;52.80;;;;;;5073894;28;20364;-50
2022/10/18 12:03:26;;;;;;;9.13;2.60;;;30.80;51.60;;;;;;5072311;28;20035;-50
2022/10/18 12:05:54;;;;;;;3.53;2.22;;;30.30;52.40;;;;;;5073537;28;20032;-51
2022/10/18 12:08:22;;;;;;;7.35;2.72;;;31.90;52.30;;;;;;5081732;28;20035;-52
2022/10/18 12:10:55;;;;;;;4.43;2.20;;;30.10;50.30;;;;;;5093992;28;20024;-55
2022/10/18 12:13:34;;;;;;;6.65;2.47;;;30.10;51.90;;;;;;5094137;28;20103;-53
2022/10/18 12:16:02;;;;;;;11.60;2.78;;;29.00;52.00;;;;;;5094112;28;20102;-52
2022/10/18 12:18:30;;;;;;;10.85;2.85;;;27.90;54.90;;;;;;5094077;28;20033;-55
2022/10/18 12:20:58;;;;;;;6.75;2.70;;;26.90;56.70;;;;;;5087919;28;20051;-50
2022/10/18 12:23:32;;;;;;;7.72;3.40;;;26.20;58.20;;;;;;5062243;28;20036;-52
2022/10/18 12:26:05;;;;;;;7.97;2.85;;;25.40;60.00;;;;;;5063306;28;20059;-51
2022/10/18 12:29:07;;;;;;;6.43;2.73;;;24.80;60.90;;;;;;5062990;28;20035;-52
2022/10/18 12:31:41;;;;;;;9.75;3.38;;;25.30;61.90;;;;;;5061709;28;20029;-54
2022/10/18 12:34:30;;;;;;;5.43;2.38;;;25.70;61.60;;;;;;5062682;28;20106;-52
2022/10/18 12:36:58;;;;;;;9.25;2.50;;;26.60;59.20;;;;;;5013679;28;20044;-51
2022/10/18 12:39:29;;;;;;;12.60;3.92;;;27.60;58.70;;;;;;5062765;28;20463;-54
2022/10/18 12:41:55;;;;;;;4.75;2.75;;;27.70;57.30;;;;;;5062562;28;20029;-53
2022/10/18 12:44:24;;;;;;;6.13;4.38;;;29.40;57.00;;;;;;5061257;28;20081;-51
2022/10/18 12:46:56;;;;;;;5.45;2.75;;;29.30;56.80;;;;;;5063448;28;20085;-51
2022/10/18 12:49:38;;;;;;;5.63;1.92;;;30.10;56.30;;;;;;5081962;28;20055;-52
2022/10/18 12:52:18;;;;;;;5.10;2.25;;;31.30;52.20;;;;;;5082463;28;20029;-51
2022/10/18 12:55:12;;;;;;;4.40;2.20;;;32.50;51.60;;;;;;5082619;28;20585;-51
2022/10/18 12:57:53;;;;;;;9.25;2.33;;;34.40;49.10;;;;;;5082298;28;20111;-52
2022/10/18 13:00:31;;;;;;;10.93;2.45;;;35.60;46.90;;;;;;5082198;28;20032;-54
2022/10/18 13:03:09;;;;;;;6.82;1.85;;;34.00;46.70;;;;;;5081884;28;20043;-53
2022/10/18 13:05:47;;;;;;;10.52;1.77;;;33.70;45.90;;;;;;5078836;28;20028;-57
2022/10/18 13:08:33;;;;;;;5.03;2.15;;;32.70;46.10;;;;;;5061587;28;20048;-51